createdAt,value
2023-05-24T00:02:14.355Z,4.80
2023-05-24T00:04:42.458Z,5.72
2023-05-24T00:07:09.440Z,5.15
2023-05-24T00:09:36.327Z,5.15
2023-05-24T00:12:03.240Z,5.38
2023-05-24T00:14:30.930Z,5.65
2023-05-24T00:16:57.840Z,5.30
2023-05-24T00:19:25.152Z,4.97
2023-05-24T00:21:51.971Z,4.88
2023-05-24T00:24:19.134Z,6.10
2023-05-24T00:26:46.150Z,5.35
2023-05-24T00:29:12.975Z,5.15
2023-05-24T00:31:39.878Z,5.32
2023-05-24T00:34:07.314Z,6.28
2023-05-24T00:36:34.200Z,5.18
2023-05-24T00:39:01.127Z,4.63
2023-05-24T00:41:27.996Z,5.65
2023-05-24T00:43:54.860Z,5.60
2023-05-24T00:46:27.387Z,6.32
2023-05-24T00:48:54.855Z,5.53
2023-05-24T00:51:21.807Z,5.05
2023-05-24T00:53:49.367Z,4.85
2023-05-24T00:56:17.460Z,5.18
2023-05-24T00:58:44.895Z,5.20
2023-05-24T01:01:12.994Z,5.75
2023-05-24T01:03:40.308Z,4.95
2023-05-24T01:06:09.018Z,5.15
2023-05-24T01:09:00.474Z,5.45
2023-05-24T01:11:42.889Z,5.20
2023-05-24T01:14:31.895Z,5.43
2023-05-24T01:17:06.995Z,5.15
2023-05-24T01:19:51.872Z,5.13
2023-05-24T01:22:40.473Z,5.25
2023-05-24T01:25:49.310Z,5.18
2023-05-24T01:28:18.501Z,4.90
2023-05-24T01:30:46.269Z,6.13
2023-05-24T01:33:13.280Z,5.55
2023-05-24T01:35:42.530Z,5.35
2023-05-24T01:38:13.370Z,5.25
2023-05-24T01:40:41.503Z,5.18
2023-05-24T01:43:17.279Z,5.00
2023-05-24T01:46:13.726Z,5.88
2023-05-24T01:48:40.459Z,5.43
2023-05-24T01:51:08.988Z,5.88
2023-05-24T01:53:42.056Z,5.28
2023-05-24T01:56:11.559Z,5.03
2023-05-24T01:58:41.228Z,5.50
2023-05-24T02:01:09.313Z,5.30
2023-05-24T02:03:38.525Z,6.25
2023-05-24T02:06:06.068Z,4.85
2023-05-24T02:08:32.915Z,6.03
2023-05-24T02:10:59.732Z,5.15
2023-05-24T02:13:26.576Z,6.03
2023-05-24T02:15:54.013Z,4.95
2023-05-24T02:18:20.991Z,4.75
2023-05-24T02:20:47.826Z,5.30
2023-05-24T02:23:14.867Z,5.20
2023-05-24T02:25:41.603Z,5.78
2023-05-24T02:28:08.780Z,5.72
2023-05-24T02:30:35.602Z,5.47
2023-05-24T02:33:02.537Z,5.43
2023-05-24T02:35:29.396Z,5.53
2023-05-24T02:37:58.832Z,5.20
2023-05-24T02:40:26.437Z,5.40
2023-05-24T02:42:53.218Z,4.97
2023-05-24T02:45:20.140Z,6.20
2023-05-24T02:47:47.148Z,4.72
2023-05-24T02:50:14.030Z,5.15
2023-05-24T02:52:41.429Z,5.25
2023-05-24T02:55:08.829Z,5.82
2023-05-24T02:57:35.937Z,5.30
2023-05-24T03:00:06.630Z,6.03
2023-05-24T03:02:34.738Z,5.68
2023-05-24T03:05:01.593Z,5.28
2023-05-24T03:07:28.404Z,5.68
2023-05-24T03:09:55.310Z,5.55
2023-05-24T03:12:22.154Z,5.25
2023-05-24T03:14:48.922Z,5.85
2023-05-24T03:17:15.716Z,5.35
2023-05-24T03:19:42.520Z,5.10
2023-05-24T03:22:09.328Z,5.25
2023-05-24T03:24:36.171Z,5.15
2023-05-24T03:27:02.950Z,5.22
2023-05-24T03:29:29.883Z,5.13
2023-05-24T03:31:56.795Z,5.20
2023-05-24T03:34:23.700Z,5.00
2023-05-24T03:36:50.614Z,4.72
2023-05-24T03:39:17.376Z,5.00
2023-05-24T03:41:44.129Z,4.72
2023-05-24T03:44:10.993Z,4.82
2023-05-24T03:46:38.067Z,5.13
2023-05-24T03:49:04.918Z,5.72
2023-05-24T03:51:31.730Z,5.10
2023-05-24T03:53:59.030Z,4.50
2023-05-24T03:56:26.895Z,5.32
2023-05-24T03:58:54.243Z,5.13
2023-05-24T04:01:32.778Z,5.03
2023-05-24T04:04:01.884Z,5.53
2023-05-24T04:06:30.223Z,5.18
2023-05-24T04:08:58.223Z,5.03
2023-05-24T04:11:29.190Z,5.70
2023-05-24T04:13:57.540Z,4.70
2023-05-24T04:16:25.029Z,5.45
2023-05-24T04:18:51.941Z,5.57
2023-05-24T04:21:18.893Z,5.13
2023-05-24T04:23:45.916Z,5.18
2023-05-24T04:26:13.754Z,4.90
2023-05-24T04:28:41.390Z,4.85
2023-05-24T04:31:09.695Z,5.15
2023-05-24T04:33:37.196Z,5.07
2023-05-24T04:36:04.201Z,5.03
2023-05-24T04:38:32.602Z,4.82
2023-05-24T04:40:59.758Z,4.55
2023-05-24T04:43:26.931Z,4.38
2023-05-24T04:45:57.852Z,5.63
2023-05-24T04:48:25.315Z,4.70
2023-05-24T04:50:56.503Z,5.22
2023-05-24T04:53:23.909Z,4.57
2023-05-24T04:55:51.648Z,5.57
2023-05-24T04:58:18.745Z,4.50
2023-05-24T05:00:45.604Z,4.93
2023-05-24T05:03:12.593Z,5.13
2023-05-24T05:05:39.439Z,4.82
2023-05-24T05:08:06.612Z,4.53
2023-05-24T05:10:33.590Z,4.78
2023-05-24T05:13:00.496Z,4.82
2023-05-24T05:15:27.378Z,4.88
2023-05-24T05:17:54.406Z,4.88
2023-05-24T05:20:21.320Z,4.95
2023-05-24T05:22:48.692Z,4.40
2023-05-24T05:25:16.080Z,4.60
2023-05-24T05:27:42.931Z,5.22
2023-05-24T05:30:10.456Z,4.60
2023-05-24T05:32:38.032Z,4.75
2023-05-24T05:35:05.856Z,4.45
2023-05-24T05:37:33.045Z,4.82
2023-05-24T05:39:59.845Z,4.25
2023-05-24T05:42:26.793Z,4.97
2023-05-24T05:44:53.627Z,5.57
2023-05-24T05:47:20.509Z,5.28
2023-05-24T05:49:47.357Z,4.55
2023-05-24T05:52:14.181Z,5.32
2023-05-24T05:54:41.041Z,4.13
2023-05-24T05:57:10.777Z,4.50
2023-05-24T05:59:38.524Z,4.28
2023-05-24T06:02:06.996Z,4.28
2023-05-24T06:04:34.418Z,4.15
2023-05-24T06:07:01.363Z,4.82
2023-05-24T06:09:28.221Z,5.10
2023-05-24T06:11:55.196Z,4.53
2023-05-24T06:14:22.762Z,4.32
2023-05-24T06:16:49.681Z,4.50
2023-05-24T06:19:17.126Z,4.35
2023-05-24T06:21:48.483Z,4.30
2023-05-24T06:24:20.749Z,3.75
2023-05-24T06:26:48.628Z,4.00
2023-05-24T06:29:15.636Z,4.80
2023-05-24T06:31:43.739Z,4.07
2023-05-24T06:34:10.915Z,4.95
2023-05-24T06:36:41.639Z,4.25
2023-05-24T06:39:10.469Z,4.85
2023-05-24T06:41:37.879Z,4.45
2023-05-24T06:44:05.053Z,4.32
2023-05-24T06:46:32.296Z,4.10
2023-05-24T06:48:59.219Z,4.35
2023-05-24T06:51:26.197Z,3.72
2023-05-24T06:53:53.297Z,4.32
2023-05-24T06:56:20.147Z,4.25
2023-05-24T06:58:47.280Z,4.38
2023-05-24T07:01:14.811Z,4.13
2023-05-24T07:03:41.650Z,3.83
2023-05-24T07:06:10.275Z,4.00
2023-05-24T07:08:37.155Z,4.30
2023-05-24T07:11:04.079Z,4.63
2023-05-24T07:13:31.014Z,4.05
2023-05-24T07:15:57.910Z,4.03
2023-05-24T07:18:24.669Z,3.75
2023-05-24T07:20:51.521Z,3.72
2023-05-24T07:23:18.521Z,3.65
2023-05-24T07:25:45.282Z,3.88
2023-05-24T07:28:12.173Z,3.53
2023-05-24T07:30:39.623Z,4.57
2023-05-24T07:33:06.485Z,3.72
2023-05-24T07:35:33.314Z,4.10
2023-05-24T07:38:00.175Z,3.00
2023-05-24T07:40:27.032Z,3.38
2023-05-24T07:42:53.870Z,2.95
2023-05-24T07:45:20.801Z,3.90
2023-05-24T07:47:47.693Z,5.30
2023-05-24T07:50:15.312Z,3.45
2023-05-24T07:52:42.117Z,3.63
2023-05-24T07:55:09.245Z,3.80
2023-05-24T07:57:36.170Z,4.03
2023-05-24T08:00:10.456Z,3.80
2023-05-24T08:02:37.321Z,3.72
2023-05-24T08:05:05.698Z,5.88
2023-05-24T08:07:32.452Z,4.47
2023-05-24T08:09:59.301Z,3.25
2023-05-24T08:12:26.360Z,4.07
2023-05-24T08:14:53.205Z,3.55
2023-05-24T08:17:20.001Z,3.05
2023-05-24T08:19:46.812Z,4.20
2023-05-24T08:22:13.918Z,6.10
2023-05-24T08:24:41.001Z,4.55
2023-05-24T08:27:08.878Z,4.80
2023-05-24T08:29:37.523Z,3.58
2023-05-24T08:32:04.668Z,5.20
2023-05-24T08:34:31.722Z,3.55
2023-05-24T08:36:58.772Z,3.97
2023-05-24T08:39:25.508Z,5.18
2023-05-24T08:42:08.005Z,3.90
2023-05-24T08:44:53.582Z,4.53
2023-05-24T08:47:24.692Z,3.85
2023-05-24T08:49:54.006Z,3.25
2023-05-24T08:52:22.494Z,3.53
2023-05-24T08:54:50.204Z,3.40
2023-05-24T08:57:18.036Z,3.65
2023-05-24T08:59:44.998Z,3.65
2023-05-24T09:02:15.042Z,3.58
2023-05-24T09:04:44.641Z,3.90
2023-05-24T09:07:14.124Z,3.33
2023-05-24T09:09:45.586Z,3.95
2023-05-24T09:12:21.824Z,3.17
2023-05-24T09:14:56.213Z,3.22
2023-05-24T09:17:23.840Z,3.20
2023-05-24T09:19:53.370Z,3.10
2023-05-24T09:22:26.031Z,3.55
2023-05-24T09:24:53.681Z,3.63
2023-05-24T09:27:23.786Z,3.35
2023-05-24T09:29:52.279Z,3.50
2023-05-24T09:32:23.753Z,3.53
2023-05-24T09:34:54.440Z,3.17
2023-05-24T09:37:27.621Z,3.10
2023-05-24T09:39:58.679Z,3.05
2023-05-24T09:42:28.873Z,2.95
2023-05-24T09:45:09.482Z,3.15
2023-05-24T09:47:38.502Z,3.30
2023-05-24T09:50:07.613Z,3.20
2023-05-24T09:52:38.314Z,3.40
2023-05-24T09:55:15.692Z,2.97
2023-05-24T09:57:44.952Z,3.30
2023-05-24T10:00:16.896Z,3.20
2023-05-24T10:02:52.967Z,3.28
2023-05-24T10:05:20.068Z,3.17
2023-05-24T10:07:47.496Z,3.88
2023-05-24T10:10:14.362Z,2.58
2023-05-24T10:12:44.325Z,3.20
2023-05-24T10:15:11.504Z,3.35
2023-05-24T10:17:38.652Z,3.63
2023-05-24T10:20:07.482Z,3.30
2023-05-24T10:22:40.755Z,3.03
2023-05-24T10:25:11.052Z,2.88
2023-05-24T10:27:39.000Z,3.10
2023-05-24T10:30:15.172Z,3.40
2023-05-24T10:32:44.891Z,2.78
2023-05-24T10:35:15.144Z,2.92
2023-05-24T10:37:43.106Z,3.38
2023-05-24T10:40:21.150Z,3.05
2023-05-24T10:42:52.006Z,3.72
2023-05-24T10:45:24.848Z,3.20
2023-05-24T10:47:52.011Z,3.05
2023-05-24T10:50:23.080Z,3.17
2023-05-24T10:52:49.993Z,3.40
2023-05-24T10:55:19.791Z,3.95
2023-05-24T10:57:46.608Z,3.00
2023-05-24T11:03:09.341Z,3.30
2023-05-24T11:05:49.518Z,3.20
2023-05-24T11:08:33.680Z,2.95
2023-05-24T11:13:41.911Z,3.17
2023-05-24T11:16:08.939Z,3.38
2023-05-24T11:18:40.323Z,3.35
2023-05-24T11:21:08.281Z,2.83
2023-05-24T11:23:38.102Z,3.55
2023-05-24T11:26:07.521Z,3.25
2023-05-24T11:28:37.866Z,3.30
2023-05-24T11:31:09.825Z,3.33
2023-05-24T11:33:41.823Z,3.45
2023-05-24T11:36:08.841Z,3.75
2023-05-24T11:38:36.915Z,3.28
2023-05-24T11:41:03.783Z,3.88
2023-05-24T11:43:31.234Z,3.13
2023-05-24T11:45:58.081Z,3.15
2023-05-24T11:48:25.195Z,2.92
2023-05-24T11:50:52.663Z,3.92
2023-05-24T11:53:23.711Z,3.25
2023-05-24T11:55:51.624Z,3.78
2023-05-24T11:58:25.087Z,3.25
2023-05-24T12:00:53.151Z,3.63
2023-05-24T12:03:20.100Z,3.30
2023-05-24T12:05:47.621Z,3.88
2023-05-24T12:08:15.952Z,3.53
2023-05-24T12:10:43.862Z,3.05
2023-05-24T12:13:24.788Z,3.17
2023-05-24T12:15:54.043Z,2.85
2023-05-24T12:18:25.198Z,2.75
2023-05-24T12:20:53.390Z,2.78
2023-05-24T12:23:21.966Z,3.03
2023-05-24T12:25:48.980Z,3.00
2023-05-24T12:28:16.586Z,3.65
2023-05-24T12:30:45.206Z,3.00
2023-05-24T12:33:12.254Z,2.80
2023-05-24T12:35:43.098Z,3.42
2023-05-24T12:38:13.419Z,3.03
2023-05-24T12:40:44.645Z,3.53
2023-05-24T12:43:15.080Z,3.35
2023-05-24T12:45:42.049Z,3.42
2023-05-24T12:48:09.008Z,3.80
2023-05-24T12:50:36.086Z,3.10
2023-05-24T12:53:03.029Z,3.60
2023-05-24T12:55:30.752Z,3.22
2023-05-24T12:57:58.253Z,3.55
2023-05-24T13:00:30.210Z,3.95
2023-05-24T13:02:58.998Z,3.55
2023-05-24T13:05:28.113Z,3.30
2023-05-24T13:07:59.369Z,3.75
2023-05-24T13:10:27.793Z,3.72
2023-05-24T13:12:54.624Z,4.22
2023-05-24T13:15:23.590Z,4.20
2023-05-24T13:17:50.678Z,3.72
2023-05-24T13:20:19.416Z,4.07
2023-05-24T13:22:46.177Z,3.92
2023-05-24T13:25:12.993Z,4.38
2023-05-24T13:27:39.853Z,3.83
2023-05-24T13:30:07.651Z,4.35
2023-05-24T13:32:34.514Z,3.70
2023-05-24T13:35:02.893Z,4.00
2023-05-24T13:37:31.489Z,3.78
2023-05-24T13:39:58.574Z,5.07
2023-05-24T13:42:25.588Z,3.80
2023-05-24T13:44:53.021Z,3.50
2023-05-24T13:47:31.202Z,3.53
2023-05-24T13:50:06.283Z,3.33
2023-05-24T13:52:33.156Z,3.65
2023-05-24T13:55:00.139Z,3.80
2023-05-24T13:57:33.677Z,4.35
2023-05-24T14:00:10.904Z,4.00
2023-05-24T14:02:39.428Z,4.25
2023-05-24T14:05:24.984Z,3.45
2023-05-24T14:07:53.452Z,4.43
2023-05-24T14:10:21.718Z,4.30
2023-05-24T14:12:59.544Z,4.07
2023-05-24T14:15:31.002Z,3.35
2023-05-24T14:17:58.990Z,3.28
2023-05-24T14:20:25.814Z,3.25
2023-05-24T14:22:52.897Z,3.30
2023-05-24T14:25:19.732Z,3.92
2023-05-24T14:27:46.658Z,3.35
2023-05-24T14:30:14.516Z,3.42
2023-05-24T14:32:41.591Z,4.00
2023-05-24T14:35:08.675Z,3.35
2023-05-24T14:37:35.627Z,3.47
2023-05-24T14:40:02.646Z,3.75
2023-05-24T14:42:29.481Z,4.38
2023-05-24T14:44:56.479Z,4.10
2023-05-24T14:47:23.342Z,3.67
2023-05-24T14:49:50.163Z,3.53
2023-05-24T14:52:17.095Z,4.05
2023-05-24T14:54:43.897Z,3.40
2023-05-24T14:57:10.917Z,3.30
2023-05-24T14:59:38.001Z,3.80
2023-05-24T15:02:05.023Z,3.88
2023-05-24T15:04:31.809Z,4.00
2023-05-24T15:06:58.653Z,3.60
2023-05-24T15:09:25.449Z,4.20
2023-05-24T15:11:52.223Z,3.55
2023-05-24T15:14:19.045Z,4.00
2023-05-24T15:16:46.081Z,3.42
2023-05-24T15:19:13.582Z,3.60
2023-05-24T15:21:40.543Z,4.20
2023-05-24T15:24:07.726Z,3.50
2023-05-24T15:26:34.599Z,4.30
2023-05-24T15:29:04.177Z,3.80
2023-05-24T15:31:31.051Z,3.70
2023-05-24T15:33:57.987Z,3.88
2023-05-24T15:36:24.860Z,4.07
2023-05-24T15:38:51.681Z,4.63
2023-05-24T15:41:18.609Z,3.80
2023-05-24T15:43:45.943Z,3.58
2023-05-24T15:46:12.779Z,3.72
2023-05-24T15:48:39.659Z,4.10
2023-05-24T15:53:37.543Z,3.45
2023-05-24T15:56:04.564Z,3.45
2023-05-24T15:58:31.544Z,3.38
2023-05-24T16:00:58.496Z,3.90
2023-05-24T16:03:25.414Z,4.10
2023-05-24T16:05:52.618Z,3.90
2023-05-24T16:08:19.536Z,3.60
2023-05-24T16:10:46.429Z,3.50
2023-05-24T16:13:13.394Z,4.25
2023-05-24T16:15:42.630Z,3.25
2023-05-24T16:18:09.681Z,4.35
2023-05-24T16:20:37.030Z,3.78
2023-05-24T16:23:04.078Z,3.67
2023-05-24T16:25:31.148Z,4.03
2023-05-24T16:27:58.071Z,3.50
2023-05-24T16:30:25.810Z,3.80
2023-05-24T16:32:52.631Z,3.33
2023-05-24T16:35:19.590Z,3.42
2023-05-24T16:37:48.509Z,3.53
2023-05-24T16:40:15.391Z,3.83
2023-05-24T16:42:42.185Z,4.10
2023-05-24T16:45:09.193Z,4.03
2023-05-24T16:47:36.158Z,4.25
2023-05-24T16:50:04.249Z,3.17
2023-05-24T16:52:31.131Z,3.40
2023-05-24T16:54:58.230Z,4.03
2023-05-24T16:57:25.157Z,3.15
2023-05-24T16:59:51.927Z,3.25
2023-05-24T17:02:18.772Z,3.25
2023-05-24T17:04:45.606Z,3.25
2023-05-24T17:07:12.528Z,3.35
2023-05-24T17:09:39.787Z,2.92
2023-05-24T17:12:07.075Z,3.20
2023-05-24T17:14:33.870Z,3.60
2023-05-24T17:17:00.837Z,3.65
2023-05-24T17:19:27.733Z,3.53
2023-05-24T17:21:54.522Z,3.47
2023-05-24T17:24:22.708Z,3.95
2023-05-24T17:26:49.633Z,4.05
2023-05-24T17:29:16.444Z,3.75
2023-05-24T17:31:43.490Z,4.03
2023-05-24T17:34:10.677Z,3.47
2023-05-24T17:36:37.772Z,3.63
2023-05-24T17:39:07.527Z,3.47
2023-05-24T17:41:34.479Z,3.25
2023-05-24T17:44:01.327Z,3.67
2023-05-24T17:46:28.253Z,3.67
2023-05-24T17:48:55.098Z,3.45
2023-05-24T17:51:22.018Z,3.35
2023-05-24T17:53:48.813Z,3.88
2023-05-24T17:56:15.728Z,4.05
2023-05-24T17:58:42.567Z,3.60
2023-05-24T18:01:11.846Z,3.60
2023-05-24T18:03:41.188Z,4.13
2023-05-24T18:06:09.899Z,4.13
2023-05-24T18:08:38.637Z,3.75
2023-05-24T18:11:08.669Z,4.28
2023-05-24T18:13:40.144Z,3.83
2023-05-24T18:16:08.517Z,3.55
2023-05-24T18:18:35.618Z,3.33
2023-05-24T18:21:02.503Z,4.15
2023-05-24T18:23:29.381Z,3.70
2023-05-24T18:26:00.648Z,3.65
2023-05-24T18:28:30.147Z,3.25
2023-05-24T18:30:57.075Z,3.88
2023-05-24T18:33:24.435Z,3.70
2023-05-24T18:35:51.586Z,3.22
2023-05-24T18:38:18.393Z,3.38
2023-05-24T18:40:45.203Z,3.58
2023-05-24T18:43:11.985Z,3.60
2023-05-24T18:45:38.913Z,4.20
2023-05-24T18:48:06.452Z,3.33
2023-05-24T18:50:33.363Z,3.72
2023-05-24T18:53:00.179Z,3.63
2023-05-24T18:55:27.110Z,3.85
2023-05-24T18:57:53.987Z,3.60
2023-05-24T19:00:22.946Z,3.80
2023-05-24T19:02:50.380Z,3.25
2023-05-24T19:05:20.165Z,3.70
2023-05-24T19:07:47.351Z,3.15
2023-05-24T19:10:14.398Z,3.40
2023-05-24T19:12:41.573Z,3.65
2023-05-24T19:15:08.961Z,3.60
2023-05-24T19:17:35.952Z,3.97
2023-05-24T19:20:03.087Z,3.03
2023-05-24T19:22:29.972Z,3.28
2023-05-24T19:24:57.542Z,3.17
2023-05-24T19:27:24.888Z,4.00
2023-05-24T19:29:51.884Z,3.15
2023-05-24T19:32:20.602Z,3.53
2023-05-24T19:34:47.809Z,4.30
2023-05-24T19:37:15.978Z,3.65
2023-05-24T19:39:42.977Z,3.53
2023-05-24T19:42:10.218Z,3.10
2023-05-24T19:44:37.002Z,3.10
2023-05-24T19:47:04.219Z,4.13
2023-05-24T19:49:31.105Z,3.58
2023-05-24T19:51:57.860Z,3.70
2023-05-24T19:54:24.768Z,3.35
2023-05-24T19:56:52.215Z,3.75
2023-05-24T19:59:19.214Z,3.50
2023-05-24T20:01:46.312Z,3.58
2023-05-24T20:04:13.773Z,3.20
2023-05-24T20:06:41.428Z,3.65
2023-05-24T20:09:08.902Z,3.05
2023-05-24T20:11:35.915Z,3.78
2023-05-24T20:14:03.194Z,3.53
2023-05-24T20:16:31.595Z,2.90
2023-05-24T20:18:58.518Z,3.65
2023-05-24T20:21:25.407Z,3.65
2023-05-24T20:23:57.799Z,3.53
2023-05-24T20:26:26.322Z,3.40
2023-05-24T20:28:53.407Z,3.30
2023-05-24T20:31:20.491Z,3.28
2023-05-24T20:33:47.928Z,3.22
2023-05-24T20:36:15.922Z,3.30
2023-05-24T20:38:42.990Z,3.58
2023-05-24T20:41:10.222Z,3.42
2023-05-24T20:43:38.486Z,3.40
2023-05-24T20:46:06.658Z,3.60
2023-05-24T20:48:33.634Z,3.63
2023-05-24T20:51:00.669Z,3.88
2023-05-24T20:53:27.710Z,3.85
2023-05-24T20:55:56.765Z,3.13
2023-05-24T20:58:23.792Z,3.85
2023-05-24T21:00:50.773Z,3.30
2023-05-24T21:03:18.492Z,3.60
2023-05-24T21:05:46.073Z,3.60
2023-05-24T21:08:13.161Z,3.72
2023-05-24T21:10:40.138Z,3.53
2023-05-24T21:13:07.640Z,3.58
2023-05-24T21:15:34.922Z,3.20
2023-05-24T21:18:01.766Z,3.50
2023-05-24T21:20:28.621Z,4.10
2023-05-24T21:22:55.769Z,3.70
2023-05-24T21:25:22.658Z,3.15
2023-05-24T21:27:49.457Z,3.67
2023-05-24T21:30:16.530Z,3.30
2023-05-24T21:32:43.557Z,3.10
2023-05-24T21:35:10.428Z,3.35
2023-05-24T21:37:37.293Z,3.65
2023-05-24T21:40:05.442Z,3.40
2023-05-24T21:42:32.359Z,4.28
2023-05-24T21:44:59.348Z,3.97
2023-05-24T21:47:26.429Z,4.03
2023-05-24T21:49:55.033Z,3.47
2023-05-24T21:52:22.375Z,3.65
2023-05-24T21:54:49.396Z,4.13
2023-05-24T21:57:16.167Z,4.22
2023-05-24T21:59:42.964Z,4.57
2023-05-24T22:02:10.175Z,4.40
2023-05-24T22:04:37.059Z,3.85
2023-05-24T22:07:04.030Z,4.35
2023-05-24T22:09:30.957Z,3.80
2023-05-24T22:11:57.889Z,3.80
2023-05-24T22:14:24.669Z,4.28
2023-05-24T22:16:51.539Z,4.40
2023-05-24T22:19:28.487Z,4.93
2023-05-24T22:22:05.672Z,4.45
2023-05-24T22:24:32.455Z,4.18
2023-05-24T22:27:01.559Z,4.10
2023-05-24T22:29:28.716Z,4.80
2023-05-24T22:31:55.781Z,3.97
2023-05-24T22:34:27.650Z,4.03
2023-05-24T22:36:55.197Z,3.47
2023-05-24T22:39:22.156Z,5.00
2023-05-24T22:41:49.601Z,4.10
2023-05-24T22:44:17.004Z,4.15
2023-05-24T22:46:43.944Z,4.60
2023-05-24T22:49:13.499Z,5.25
2023-05-24T22:51:44.610Z,4.13
2023-05-24T22:54:12.176Z,5.60
2023-05-24T22:56:39.512Z,5.03
2023-05-24T22:59:07.057Z,4.57
2023-05-24T23:01:34.359Z,5.03
2023-05-24T23:04:15.652Z,4.70
2023-05-24T23:06:46.406Z,4.93
2023-05-24T23:09:13.349Z,5.10
2023-05-24T23:11:40.313Z,5.05
2023-05-24T23:14:09.116Z,4.88
2023-05-24T23:16:46.110Z,4.75
2023-05-24T23:19:18.728Z,4.70
2023-05-24T23:21:46.006Z,4.45
2023-05-24T23:24:14.943Z,5.07
2023-05-24T23:26:42.540Z,4.88
2023-05-24T23:29:09.773Z,5.07
2023-05-24T23:31:36.949Z,5.22
2023-05-24T23:34:04.296Z,4.90
2023-05-24T23:36:31.515Z,5.45
2023-05-24T23:38:58.554Z,4.35
2023-05-24T23:41:25.390Z,5.97
2023-05-24T23:43:52.644Z,5.05
2023-05-24T23:46:19.599Z,5.72
2023-05-24T23:48:46.557Z,5.38
2023-05-24T23:51:13.351Z,5.38
2023-05-24T23:53:40.141Z,5.30
2023-05-24T23:56:06.957Z,5.28
2023-05-24T23:58:34.251Z,5.68
